Terminal Aerodrome Forecast
Issued by NWS

Home | Current Version | Previous Version | Text Only | Print | Product List | Glossary On
Versions: 1 2 3 4 5 6 7 8 9 10 11 12 13 14 15 16 17 18 19 20
000
FTUS41 KBGM 251732
TAFITH
TAF
KITH 251732Z 2518/2618 30010G20KT P6SM BKN050
      TEMPO 2518/2522 -SHRA OVC035
     FM260000 23004KT P6SM SCT060 BKN250
     FM261300 26008KT P6SM -SHRA BKN035=

USA.gov is the U.S. government's official web portal to all federal, state and local government web resources and services.